sensor_id;sensor_type;location;lat;lon;timestamp;P1;durP1;ratioP1;P2;durP2;ratioP2
15055;SDS011;7626;42.674;23.284;2023-01-16T00:01:16;28.73;;;24.60;;
15055;SDS011;7626;42.674;23.284;2023-01-16T00:03:43;29.70;;;25.07;;
15055;SDS011;7626;42.674;23.284;2023-01-16T00:06:10;28.57;;;24.37;;
15055;SDS011;7626;42.674;23.284;2023-01-16T00:08:38;26.97;;;24.03;;
15055;SDS011;7626;42.674;23.284;2023-01-16T00:11:05;29.00;;;24.53;;
15055;SDS011;7626;42.674;23.284;2023-01-16T00:13:31;26.73;;;23.83;;
15055;SDS011;7626;42.674;23.284;2023-01-16T00:15:59;29.50;;;24.53;;
15055;SDS011;7626;42.674;23.284;2023-01-16T00:18:26;28.90;;;23.47;;
15055;SDS011;7626;42.674;23.284;2023-01-16T00:20:53;27.80;;;22.93;;
15055;SDS011;7626;42.674;23.284;2023-01-16T00:23:20;30.80;;;26.43;;
15055;SDS011;7626;42.674;23.284;2023-01-16T00:25:47;28.97;;;25.07;;
15055;SDS011;7626;42.674;23.284;2023-01-16T00:28:13;29.00;;;24.17;;
15055;SDS011;7626;42.674;23.284;2023-01-16T00:30:41;30.90;;;23.80;;
15055;SDS011;7626;42.674;23.284;2023-01-16T00:33:10;29.70;;;23.40;;
15055;SDS011;7626;42.674;23.284;2023-01-16T00:35:37;27.03;;;23.13;;
15055;SDS011;7626;42.674;23.284;2023-01-16T00:38:04;26.83;;;22.03;;
15055;SDS011;7626;42.674;23.284;2023-01-16T00:40:31;28.03;;;22.50;;
15055;SDS011;7626;42.674;23.284;2023-01-16T00:42:58;26.63;;;22.67;;
15055;SDS011;7626;42.674;23.284;2023-01-16T00:45:25;27.47;;;21.60;;
15055;SDS011;7626;42.674;23.284;2023-01-16T00:47:51;24.63;;;20.90;;
15055;SDS011;7626;42.674;23.284;2023-01-16T00:50:20;24.20;;;21.07;;
15055;SDS011;7626;42.674;23.284;2023-01-16T00:52:46;26.50;;;21.87;;
15055;SDS011;7626;42.674;23.284;2023-01-16T00:55:13;25.93;;;21.07;;
15055;SDS011;7626;42.674;23.284;2023-01-16T00:57:40;26.67;;;21.70;;
15055;SDS011;7626;42.674;23.284;2023-01-16T01:00:07;26.67;;;21.70;;
15055;SDS011;7626;42.674;23.284;2023-01-16T01:02:35;26.70;;;21.37;;
15055;SDS011;7626;42.674;23.284;2023-01-16T01:05:02;24.93;;;20.67;;
15055;SDS011;7626;42.674;23.284;2023-01-16T01:07:30;25.93;;;21.50;;
15055;SDS011;7626;42.674;23.284;2023-01-16T01:09:57;25.60;;;21.50;;
15055;SDS011;7626;42.674;23.284;2023-01-16T01:12:24;25.63;;;21.10;;
15055;SDS011;7626;42.674;23.284;2023-01-16T01:14:50;24.73;;;21.40;;
15055;SDS011;7626;42.674;23.284;2023-01-16T01:17:17;24.87;;;20.60;;
15055;SDS011;7626;42.674;23.284;2023-01-16T01:19:44;23.73;;;19.97;;
15055;SDS011;7626;42.674;23.284;2023-01-16T01:22:10;26.00;;;21.13;;
15055;SDS011;7626;42.674;23.284;2023-01-16T01:24:39;26.83;;;21.53;;
15055;SDS011;7626;42.674;23.284;2023-01-16T01:27:05;26.03;;;21.57;;
15055;SDS011;7626;42.674;23.284;2023-01-16T01:29:32;26.03;;;21.67;;
15055;SDS011;7626;42.674;23.284;2023-01-16T01:31:59;25.67;;;21.80;;
15055;SDS011;7626;42.674;23.284;2023-01-16T01:34:27;25.47;;;21.57;;
15055;SDS011;7626;42.674;23.284;2023-01-16T01:36:56;25.57;;;21.73;;
15055;SDS011;7626;42.674;23.284;2023-01-16T01:39:23;28.27;;;22.20;;
15055;SDS011;7626;42.674;23.284;2023-01-16T01:41:51;26.90;;;22.37;;
15055;SDS011;7626;42.674;23.284;2023-01-16T01:44:44;27.13;;;21.97;;
15055;SDS011;7626;42.674;23.284;2023-01-16T01:47:15;25.87;;;20.60;;
15055;SDS011;7626;42.674;23.284;2023-01-16T01:49:45;25.40;;;21.70;;
15055;SDS011;7626;42.674;23.284;2023-01-16T01:52:14;28.40;;;21.83;;
15055;SDS011;7626;42.674;23.284;2023-01-16T01:54:42;24.17;;;20.70;;
15055;SDS011;7626;42.674;23.284;2023-01-16T01:57:14;23.93;;;20.47;;
15055;SDS011;7626;42.674;23.284;2023-01-16T01:59:44;26.47;;;21.90;;
15055;SDS011;7626;42.674;23.284;2023-01-16T02:02:15;23.90;;;20.43;;
15055;SDS011;7626;42.674;23.284;2023-01-16T02:04:44;25.10;;;21.37;;
15055;SDS011;7626;42.674;23.284;2023-01-16T02:07:14;25.57;;;21.47;;
15055;SDS011;7626;42.674;23.284;2023-01-16T02:09:42;26.60;;;21.97;;
15055;SDS011;7626;42.674;23.284;2023-01-16T02:12:10;27.40;;;21.20;;
15055;SDS011;7626;42.674;23.284;2023-01-16T02:14:40;30.90;;;22.30;;
15055;SDS011;7626;42.674;23.284;2023-01-16T02:17:09;27.87;;;21.93;;
15055;SDS011;7626;42.674;23.284;2023-01-16T02:19:54;25.67;;;20.87;;
15055;SDS011;7626;42.674;23.284;2023-01-16T02:32:01;29.20;;;21.97;;
15055;SDS011;7626;42.674;23.284;2023-01-16T02:34:40;29.77;;;22.90;;
15055;SDS011;7626;42.674;23.284;2023-01-16T02:37:19;28.13;;;20.97;;
15055;SDS011;7626;42.674;23.284;2023-01-16T02:39:56;28.80;;;21.77;;
15055;SDS011;7626;42.674;23.284;2023-01-16T02:42:37;29.07;;;22.33;;
15055;SDS011;7626;42.674;23.284;2023-01-16T02:45:10;29.77;;;21.90;;
15055;SDS011;7626;42.674;23.284;2023-01-16T02:47:45;27.30;;;21.27;;
15055;SDS011;7626;42.674;23.284;2023-01-16T02:50:20;27.33;;;21.20;;
15055;SDS011;7626;42.674;23.284;2023-01-16T02:52:53;31.07;;;22.20;;
15055;SDS011;7626;42.674;23.284;2023-01-16T02:55:26;27.77;;;21.57;;
15055;SDS011;7626;42.674;23.284;2023-01-16T02:57:59;28.77;;;21.27;;
15055;SDS011;7626;42.674;23.284;2023-01-16T03:00:28;30.30;;;21.23;;
15055;SDS011;7626;42.674;23.284;2023-01-16T03:02:57;27.17;;;20.17;;
15055;SDS011;7626;42.674;23.284;2023-01-16T03:05:23;27.53;;;20.73;;
15055;SDS011;7626;42.674;23.284;2023-01-16T03:10:51;25.97;;;19.47;;
15055;SDS011;7626;42.674;23.284;2023-01-16T03:13:54;27.13;;;19.37;;
15055;SDS011;7626;42.674;23.284;2023-01-16T03:16:28;25.50;;;19.37;;
15055;SDS011;7626;42.674;23.284;2023-01-16T03:19:06;27.03;;;20.70;;
15055;SDS011;7626;42.674;23.284;2023-01-16T03:21:50;26.97;;;20.23;;
15055;SDS011;7626;42.674;23.284;2023-01-16T03:24:29;25.37;;;19.90;;
15055;SDS011;7626;42.674;23.284;2023-01-16T03:27:05;26.97;;;20.43;;
15055;SDS011;7626;42.674;23.284;2023-01-16T03:29:37;25.87;;;19.97;;
15055;SDS011;7626;42.674;23.284;2023-01-16T03:32:11;27.10;;;20.63;;
15055;SDS011;7626;42.674;23.284;2023-01-16T03:34:50;27.10;;;20.03;;
15055;SDS011;7626;42.674;23.284;2023-01-16T03:37:24;25.50;;;20.03;;
15055;SDS011;7626;42.674;23.284;2023-01-16T03:39:56;28.00;;;21.03;;
15055;SDS011;7626;42.674;23.284;2023-01-16T03:42:29;27.70;;;20.97;;
15055;SDS011;7626;42.674;23.284;2023-01-16T03:45:02;26.77;;;20.83;;
15055;SDS011;7626;42.674;23.284;2023-01-16T03:47:34;28.93;;;21.23;;
15055;SDS011;7626;42.674;23.284;2023-01-16T03:50:08;28.27;;;21.60;;
15055;SDS011;7626;42.674;23.284;2023-01-16T03:52:39;28.03;;;20.90;;
15055;SDS011;7626;42.674;23.284;2023-01-16T03:55:12;27.43;;;21.00;;
15055;SDS011;7626;42.674;23.284;2023-01-16T03:57:45;29.00;;;21.33;;
15055;SDS011;7626;42.674;23.284;2023-01-16T04:00:16;30.00;;;21.13;;
15055;SDS011;7626;42.674;23.284;2023-01-16T04:02:46;29.17;;;20.93;;
15055;SDS011;7626;42.674;23.284;2023-01-16T04:05:20;29.03;;;21.53;;
15055;SDS011;7626;42.674;23.284;2023-01-16T04:07:52;28.67;;;21.07;;
15055;SDS011;7626;42.674;23.284;2023-01-16T04:10:24;30.23;;;21.87;;
15055;SDS011;7626;42.674;23.284;2023-01-16T04:12:54;29.30;;;20.87;;
15055;SDS011;7626;42.674;23.284;2023-01-16T04:15:23;29.47;;;21.97;;
15055;SDS011;7626;42.674;23.284;2023-01-16T04:17:51;29.23;;;21.47;;
15055;SDS011;7626;42.674;23.284;2023-01-16T04:20:21;29.57;;;20.97;;
15055;SDS011;7626;42.674;23.284;2023-01-16T04:22:49;27.50;;;20.43;;
15055;SDS011;7626;42.674;23.284;2023-01-16T04:25:17;27.67;;;20.27;;
15055;SDS011;7626;42.674;23.284;2023-01-16T04:27:45;28.67;;;21.10;;
15055;SDS011;7626;42.674;23.284;2023-01-16T04:30:12;33.37;;;24.10;;
15055;SDS011;7626;42.674;23.284;2023-01-16T04:32:40;31.43;;;22.53;;
15055;SDS011;7626;42.674;23.284;2023-01-16T04:35:07;30.97;;;22.37;;
15055;SDS011;7626;42.674;23.284;2023-01-16T04:37:36;31.87;;;23.10;;
15055;SDS011;7626;42.674;23.284;2023-01-16T04:40:03;28.97;;;22.03;;
15055;SDS011;7626;42.674;23.284;2023-01-16T04:42:33;30.83;;;22.77;;
15055;SDS011;7626;42.674;23.284;2023-01-16T04:45:00;31.60;;;23.37;;
15055;SDS011;7626;42.674;23.284;2023-01-16T04:47:27;32.07;;;22.87;;
15055;SDS011;7626;42.674;23.284;2023-01-16T04:49:54;31.77;;;22.23;;
15055;SDS011;7626;42.674;23.284;2023-01-16T04:52:21;32.00;;;23.63;;
15055;SDS011;7626;42.674;23.284;2023-01-16T04:54:49;32.00;;;23.67;;
15055;SDS011;7626;42.674;23.284;2023-01-16T04:57:16;30.30;;;22.10;;
15055;SDS011;7626;42.674;23.284;2023-01-16T04:59:43;32.33;;;22.93;;
15055;SDS011;7626;42.674;23.284;2023-01-16T05:02:09;30.17;;;22.43;;
15055;SDS011;7626;42.674;23.284;2023-01-16T05:04:36;31.73;;;22.67;;
15055;SDS011;7626;42.674;23.284;2023-01-16T05:07:03;31.20;;;22.07;;
15055;SDS011;7626;42.674;23.284;2023-01-16T05:09:30;29.87;;;21.80;;
15055;SDS011;7626;42.674;23.284;2023-01-16T05:11:58;31.73;;;22.20;;
15055;SDS011;7626;42.674;23.284;2023-01-16T05:14:24;30.50;;;21.40;;
15055;SDS011;7626;42.674;23.284;2023-01-16T05:16:51;28.90;;;22.90;;
15055;SDS011;7626;42.674;23.284;2023-01-16T05:19:18;34.87;;;25.70;;
15055;SDS011;7626;42.674;23.284;2023-01-16T05:21:44;34.40;;;25.27;;
15055;SDS011;7626;42.674;23.284;2023-01-16T05:24:11;32.30;;;23.67;;
15055;SDS011;7626;42.674;23.284;2023-01-16T05:26:38;31.03;;;23.90;;
15055;SDS011;7626;42.674;23.284;2023-01-16T05:29:06;32.03;;;23.80;;
15055;SDS011;7626;42.674;23.284;2023-01-16T05:31:33;33.70;;;24.87;;
15055;SDS011;7626;42.674;23.284;2023-01-16T05:34:00;34.70;;;25.27;;
15055;SDS011;7626;42.674;23.284;2023-01-16T05:36:27;30.93;;;23.67;;
15055;SDS011;7626;42.674;23.284;2023-01-16T05:38:53;32.73;;;24.30;;
15055;SDS011;7626;42.674;23.284;2023-01-16T05:41:20;35.80;;;26.97;;
15055;SDS011;7626;42.674;23.284;2023-01-16T05:43:47;31.43;;;24.10;;
15055;SDS011;7626;42.674;23.284;2023-01-16T05:46:15;33.80;;;23.73;;
15055;SDS011;7626;42.674;23.284;2023-01-16T05:48:42;30.57;;;23.20;;
15055;SDS011;7626;42.674;23.284;2023-01-16T05:51:09;31.83;;;23.63;;
15055;SDS011;7626;42.674;23.284;2023-01-16T05:53:36;35.03;;;24.07;;
15055;SDS011;7626;42.674;23.284;2023-01-16T05:56:06;31.13;;;23.53;;
15055;SDS011;7626;42.674;23.284;2023-01-16T05:58:34;31.13;;;23.27;;
15055;SDS011;7626;42.674;23.284;2023-01-16T06:01:01;35.37;;;24.77;;
15055;SDS011;7626;42.674;23.284;2023-01-16T06:03:29;31.80;;;23.43;;
15055;SDS011;7626;42.674;23.284;2023-01-16T06:05:56;33.83;;;25.63;;
15055;SDS011;7626;42.674;23.284;2023-01-16T06:08:24;35.47;;;24.53;;
15055;SDS011;7626;42.674;23.284;2023-01-16T06:10:51;34.27;;;24.07;;
15055;SDS011;7626;42.674;23.284;2023-01-16T06:13:17;32.50;;;23.27;;
15055;SDS011;7626;42.674;23.284;2023-01-16T06:15:44;34.37;;;24.70;;
15055;SDS011;7626;42.674;23.284;2023-01-16T06:18:11;34.30;;;23.97;;
15055;SDS011;7626;42.674;23.284;2023-01-16T06:20:40;33.40;;;23.63;;
15055;SDS011;7626;42.674;23.284;2023-01-16T06:23:07;37.07;;;23.20;;
15055;SDS011;7626;42.674;23.284;2023-01-16T06:25:34;33.83;;;23.20;;
15055;SDS011;7626;42.674;23.284;2023-01-16T06:28:01;37.10;;;23.93;;
15055;SDS011;7626;42.674;23.284;2023-01-16T06:30:28;32.40;;;22.67;;
15055;SDS011;7626;42.674;23.284;2023-01-16T06:32:55;34.07;;;25.17;;
15055;SDS011;7626;42.674;23.284;2023-01-16T06:35:22;37.13;;;25.20;;
15055;SDS011;7626;42.674;23.284;2023-01-16T06:37:50;36.63;;;25.53;;
15055;SDS011;7626;42.674;23.284;2023-01-16T06:40:17;37.07;;;26.33;;
15055;SDS011;7626;42.674;23.284;2023-01-16T06:42:44;39.40;;;27.57;;
15055;SDS011;7626;42.674;23.284;2023-01-16T06:45:11;42.20;;;29.77;;
15055;SDS011;7626;42.674;23.284;2023-01-16T06:47:38;36.60;;;28.67;;
15055;SDS011;7626;42.674;23.284;2023-01-16T06:50:05;35.07;;;26.57;;
15055;SDS011;7626;42.674;23.284;2023-01-16T06:52:32;34.40;;;26.70;;
15055;SDS011;7626;42.674;23.284;2023-01-16T06:55:01;32.77;;;24.90;;
15055;SDS011;7626;42.674;23.284;2023-01-16T06:57:28;32.23;;;25.37;;
15055;SDS011;7626;42.674;23.284;2023-01-16T06:59:55;29.87;;;23.23;;
15055;SDS011;7626;42.674;23.284;2023-01-16T07:02:21;28.97;;;21.23;;
15055;SDS011;7626;42.674;23.284;2023-01-16T07:04:48;26.10;;;21.57;;
15055;SDS011;7626;42.674;23.284;2023-01-16T07:07:15;27.87;;;21.80;;
15055;SDS011;7626;42.674;23.284;2023-01-16T07:09:42;29.23;;;21.73;;
15055;SDS011;7626;42.674;23.284;2023-01-16T07:12:10;29.63;;;23.23;;
15055;SDS011;7626;42.674;23.284;2023-01-16T07:14:37;31.90;;;23.57;;
15055;SDS011;7626;42.674;23.284;2023-01-16T07:17:21;30.90;;;23.90;;
15055;SDS011;7626;42.674;23.284;2023-01-16T07:20:14;29.20;;;24.13;;
15055;SDS011;7626;42.674;23.284;2023-01-16T07:22:58;28.83;;;23.90;;
15055;SDS011;7626;42.674;23.284;2023-01-16T07:25:30;32.13;;;24.97;;
15055;SDS011;7626;42.674;23.284;2023-01-16T07:28:01;29.53;;;24.43;;
15055;SDS011;7626;42.674;23.284;2023-01-16T07:30:28;32.97;;;25.27;;
15055;SDS011;7626;42.674;23.284;2023-01-16T07:32:55;36.63;;;28.53;;
15055;SDS011;7626;42.674;23.284;2023-01-16T07:35:22;35.33;;;27.17;;
15055;SDS011;7626;42.674;23.284;2023-01-16T07:37:48;37.93;;;29.63;;
15055;SDS011;7626;42.674;23.284;2023-01-16T07:40:16;35.60;;;28.27;;
15055;SDS011;7626;42.674;23.284;2023-01-16T07:42:43;38.23;;;30.63;;
15055;SDS011;7626;42.674;23.284;2023-01-16T07:45:11;38.43;;;31.37;;
15055;SDS011;7626;42.674;23.284;2023-01-16T07:47:38;40.53;;;31.57;;
15055;SDS011;7626;42.674;23.284;2023-01-16T07:50:05;44.60;;;34.30;;
15055;SDS011;7626;42.674;23.284;2023-01-16T07:52:32;40.93;;;32.07;;
15055;SDS011;7626;42.674;23.284;2023-01-16T07:54:59;43.73;;;32.77;;
15055;SDS011;7626;42.674;23.284;2023-01-16T07:57:25;42.30;;;32.47;;
15055;SDS011;7626;42.674;23.284;2023-01-16T07:59:52;41.23;;;32.27;;
15055;SDS011;7626;42.674;23.284;2023-01-16T08:02:21;42.93;;;32.83;;
15055;SDS011;7626;42.674;23.284;2023-01-16T08:04:48;41.47;;;32.00;;
15055;SDS011;7626;42.674;23.284;2023-01-16T08:07:14;42.20;;;31.63;;
15055;SDS011;7626;42.674;23.284;2023-01-16T08:09:41;45.47;;;33.43;;
15055;SDS011;7626;42.674;23.284;2023-01-16T08:12:08;41.57;;;31.77;;
15055;SDS011;7626;42.674;23.284;2023-01-16T08:14:35;46.90;;;34.10;;
15055;SDS011;7626;42.674;23.284;2023-01-16T08:17:02;41.60;;;31.70;;
15055;SDS011;7626;42.674;23.284;2023-01-16T08:19:30;40.47;;;29.57;;
15055;SDS011;7626;42.674;23.284;2023-01-16T08:21:57;42.00;;;31.10;;
15055;SDS011;7626;42.674;23.284;2023-01-16T08:24:23;37.67;;;29.17;;
15055;SDS011;7626;42.674;23.284;2023-01-16T08:26:50;42.27;;;31.37;;
15055;SDS011;7626;42.674;23.284;2023-01-16T08:29:17;40.20;;;29.10;;
15055;SDS011;7626;42.674;23.284;2023-01-16T08:31:44;43.67;;;31.13;;
15055;SDS011;7626;42.674;23.284;2023-01-16T08:34:11;40.93;;;29.13;;
15055;SDS011;7626;42.674;23.284;2023-01-16T08:36:39;42.20;;;30.23;;
15055;SDS011;7626;42.674;23.284;2023-01-16T08:39:08;42.70;;;31.23;;
15055;SDS011;7626;42.674;23.284;2023-01-16T08:41:35;40.37;;;29.53;;
15055;SDS011;7626;42.674;23.284;2023-01-16T08:44:19;41.80;;;30.13;;
15055;SDS011;7626;42.674;23.284;2023-01-16T08:47:04;38.50;;;28.53;;
15055;SDS011;7626;42.674;23.284;2023-01-16T08:49:52;39.03;;;28.57;;
15055;SDS011;7626;42.674;23.284;2023-01-16T08:52:37;36.67;;;28.27;;
15055;SDS011;7626;42.674;23.284;2023-01-16T08:55:05;39.83;;;28.83;;
15055;SDS011;7626;42.674;23.284;2023-01-16T08:57:32;42.50;;;29.33;;
15055;SDS011;7626;42.674;23.284;2023-01-16T09:00:00;40.57;;;29.33;;
15055;SDS011;7626;42.674;23.284;2023-01-16T09:02:28;39.60;;;29.20;;
15055;SDS011;7626;42.674;23.284;2023-01-16T09:04:56;37.80;;;28.70;;
15055;SDS011;7626;42.674;23.284;2023-01-16T09:07:23;38.83;;;29.13;;
15055;SDS011;7626;42.674;23.284;2023-01-16T09:09:51;40.97;;;29.47;;
15055;SDS011;7626;42.674;23.284;2023-01-16T09:12:18;42.60;;;30.43;;
15055;SDS011;7626;42.674;23.284;2023-01-16T09:15:03;40.23;;;28.83;;
15055;SDS011;7626;42.674;23.284;2023-01-16T09:17:31;38.30;;;27.80;;
15055;SDS011;7626;42.674;23.284;2023-01-16T09:19:58;62.47;;;31.40;;
15055;SDS011;7626;42.674;23.284;2023-01-16T09:22:25;58.47;;;31.47;;
15055;SDS011;7626;42.674;23.284;2023-01-16T09:24:54;45.60;;;28.30;;
15055;SDS011;7626;42.674;23.284;2023-01-16T09:27:21;45.23;;;28.37;;
15055;SDS011;7626;42.674;23.284;2023-01-16T09:29:49;43.30;;;28.13;;
15055;SDS011;7626;42.674;23.284;2023-01-16T09:32:17;43.90;;;29.37;;
15055;SDS011;7626;42.674;23.284;2023-01-16T09:34:43;54.57;;;29.33;;
15055;SDS011;7626;42.674;23.284;2023-01-16T09:37:11;37.10;;;27.90;;
15055;SDS011;7626;42.674;23.284;2023-01-16T09:39:38;40.57;;;27.87;;
15055;SDS011;7626;42.674;23.284;2023-01-16T09:45:22;34.13;;;26.07;;
15055;SDS011;7626;42.674;23.284;2023-01-16T09:47:53;41.63;;;27.50;;
15055;SDS011;7626;42.674;23.284;2023-01-16T09:50:26;40.60;;;27.43;;
15055;SDS011;7626;42.674;23.284;2023-01-16T09:52:58;37.60;;;26.80;;
15055;SDS011;7626;42.674;23.284;2023-01-16T09:55:46;42.90;;;28.13;;
15055;SDS011;7626;42.674;23.284;2023-01-16T09:58:34;38.80;;;27.63;;
15055;SDS011;7626;42.674;23.284;2023-01-16T10:01:04;42.13;;;28.00;;
15055;SDS011;7626;42.674;23.284;2023-01-16T10:03:34;43.13;;;27.63;;
15055;SDS011;7626;42.674;23.284;2023-01-16T10:06:09;62.50;;;31.33;;
15055;SDS011;7626;42.674;23.284;2023-01-16T10:08:44;44.87;;;29.03;;
15055;SDS011;7626;42.674;23.284;2023-01-16T10:11:26;52.00;;;29.90;;
15055;SDS011;7626;42.674;23.284;2023-01-16T10:14:04;53.23;;;32.30;;
15055;SDS011;7626;42.674;23.284;2023-01-16T10:16:45;51.40;;;31.33;;
15055;SDS011;7626;42.674;23.284;2023-01-16T10:19:26;43.37;;;30.20;;
15055;SDS011;7626;42.674;23.284;2023-01-16T10:22:11;46.93;;;31.27;;
15055;SDS011;7626;42.674;23.284;2023-01-16T10:24:52;45.93;;;31.37;;
15055;SDS011;7626;42.674;23.284;2023-01-16T10:27:28;35.90;;;27.07;;
15055;SDS011;7626;42.674;23.284;2023-01-16T10:30:03;34.77;;;26.50;;
15055;SDS011;7626;42.674;23.284;2023-01-16T10:32:38;32.67;;;25.53;;
15055;SDS011;7626;42.674;23.284;2023-01-16T10:35:12;36.83;;;25.60;;
15055;SDS011;7626;42.674;23.284;2023-01-16T10:37:42;33.20;;;25.40;;
15055;SDS011;7626;42.674;23.284;2023-01-16T10:40:13;34.33;;;24.90;;
15055;SDS011;7626;42.674;23.284;2023-01-16T10:42:41;31.93;;;23.67;;
15055;SDS011;7626;42.674;23.284;2023-01-16T10:45:30;31.17;;;22.70;;
15055;SDS011;7626;42.674;23.284;2023-01-16T10:48:17;30.27;;;22.00;;
15055;SDS011;7626;42.674;23.284;2023-01-16T10:51:02;30.40;;;22.13;;
15055;SDS011;7626;42.674;23.284;2023-01-16T10:53:31;28.27;;;21.93;;
15055;SDS011;7626;42.674;23.284;2023-01-16T10:55:59;29.50;;;21.83;;
15055;SDS011;7626;42.674;23.284;2023-01-16T10:58:26;28.83;;;22.53;;
15055;SDS011;7626;42.674;23.284;2023-01-16T11:00:58;28.50;;;20.33;;
15055;SDS011;7626;42.674;23.284;2023-01-16T11:03:31;28.63;;;21.07;;
15055;SDS011;7626;42.674;23.284;2023-01-16T11:06:05;27.63;;;21.27;;
15055;SDS011;7626;42.674;23.284;2023-01-16T11:08:34;25.60;;;21.23;;
15055;SDS011;7626;42.674;23.284;2023-01-16T11:11:01;26.03;;;20.40;;
15055;SDS011;7626;42.674;23.284;2023-01-16T11:13:28;24.50;;;19.73;;
15055;SDS011;7626;42.674;23.284;2023-01-16T11:16:19;24.93;;;19.60;;
15055;SDS011;7626;42.674;23.284;2023-01-16T11:19:18;23.37;;;19.00;;
15055;SDS011;7626;42.674;23.284;2023-01-16T11:21:49;23.00;;;18.70;;
15055;SDS011;7626;42.674;23.284;2023-01-16T11:24:18;23.80;;;19.37;;
15055;SDS011;7626;42.674;23.284;2023-01-16T11:26:48;22.63;;;18.60;;
15055;SDS011;7626;42.674;23.284;2023-01-16T11:29:17;26.97;;;19.77;;
15055;SDS011;7626;42.674;23.284;2023-01-16T11:31:50;27.23;;;18.93;;
15055;SDS011;7626;42.674;23.284;2023-01-16T11:34:22;24.30;;;19.50;;
15055;SDS011;7626;42.674;23.284;2023-01-16T11:36:51;24.07;;;20.07;;
15055;SDS011;7626;42.674;23.284;2023-01-16T11:39:20;26.30;;;21.53;;
15055;SDS011;7626;42.674;23.284;2023-01-16T11:41:50;24.67;;;19.07;;
15055;SDS011;7626;42.674;23.284;2023-01-16T11:44:20;24.40;;;20.20;;
15055;SDS011;7626;42.674;23.284;2023-01-16T11:47:10;24.20;;;19.90;;
15055;SDS011;7626;42.674;23.284;2023-01-16T11:49:39;27.20;;;20.40;;
15055;SDS011;7626;42.674;23.284;2023-01-16T11:52:11;24.87;;;19.30;;
15055;SDS011;7626;42.674;23.284;2023-01-16T11:54:52;23.37;;;19.27;;
15055;SDS011;7626;42.674;23.284;2023-01-16T11:57:22;21.63;;;18.97;;
15055;SDS011;7626;42.674;23.284;2023-01-16T12:03:15;22.90;;;18.20;;
15055;SDS011;7626;42.674;23.284;2023-01-16T12:06:03;23.00;;;18.20;;
15055;SDS011;7626;42.674;23.284;2023-01-16T12:11:42;21.70;;;18.47;;
15055;SDS011;7626;42.674;23.284;2023-01-16T12:14:22;22.90;;;18.20;;
15055;SDS011;7626;42.674;23.284;2023-01-16T12:16:59;22.03;;;18.20;;
15055;SDS011;7626;42.674;23.284;2023-01-16T12:19:46;23.80;;;18.23;;
15055;SDS011;7626;42.674;23.284;2023-01-16T12:22:37;23.07;;;18.33;;
15055;SDS011;7626;42.674;23.284;2023-01-16T12:25:23;23.73;;;18.60;;
15055;SDS011;7626;42.674;23.284;2023-01-16T12:27:56;21.37;;;17.40;;
15055;SDS011;7626;42.674;23.284;2023-01-16T12:30:35;20.77;;;17.80;;
15055;SDS011;7626;42.674;23.284;2023-01-16T12:33:37;20.23;;;17.37;;
15055;SDS011;7626;42.674;23.284;2023-01-16T12:36:13;23.00;;;17.77;;
15055;SDS011;7626;42.674;23.284;2023-01-16T12:38:48;24.33;;;17.40;;
15055;SDS011;7626;42.674;23.284;2023-01-16T12:41:22;20.67;;;16.60;;
15055;SDS011;7626;42.674;23.284;2023-01-16T12:44:19;21.13;;;16.60;;
15055;SDS011;7626;42.674;23.284;2023-01-16T12:46:58;20.53;;;17.67;;
15055;SDS011;7626;42.674;23.284;2023-01-16T12:49:39;20.50;;;17.17;;
15055;SDS011;7626;42.674;23.284;2023-01-16T12:52:27;19.07;;;16.17;;
15055;SDS011;7626;42.674;23.284;2023-01-16T12:55:17;21.53;;;17.13;;
15055;SDS011;7626;42.674;23.284;2023-01-16T12:57:58;21.00;;;17.00;;
15055;SDS011;7626;42.674;23.284;2023-01-16T13:00:37;22.10;;;17.80;;
15055;SDS011;7626;42.674;23.284;2023-01-16T13:05:54;22.37;;;18.17;;
15055;SDS011;7626;42.674;23.284;2023-01-16T13:08:26;25.03;;;19.53;;
15055;SDS011;7626;42.674;23.284;2023-01-16T13:10:59;23.03;;;18.90;;
15055;SDS011;7626;42.674;23.284;2023-01-16T13:13:49;23.03;;;19.37;;
15055;SDS011;7626;42.674;23.284;2023-01-16T13:16:20;25.13;;;18.77;;
15055;SDS011;7626;42.674;23.284;2023-01-16T13:18:53;19.63;;;17.20;;
15055;SDS011;7626;42.674;23.284;2023-01-16T13:21:24;21.80;;;17.17;;
15055;SDS011;7626;42.674;23.284;2023-01-16T13:23:56;23.30;;;18.80;;
15055;SDS011;7626;42.674;23.284;2023-01-16T13:26:28;22.23;;;18.17;;
15055;SDS011;7626;42.674;23.284;2023-01-16T13:28:59;22.40;;;17.33;;
15055;SDS011;7626;42.674;23.284;2023-01-16T13:31:34;21.03;;;17.50;;
15055;SDS011;7626;42.674;23.284;2023-01-16T13:34:08;21.50;;;17.43;;
15055;SDS011;7626;42.674;23.284;2023-01-16T13:36:57;24.30;;;17.27;;
15055;SDS011;7626;42.674;23.284;2023-01-16T13:39:55;21.10;;;16.90;;
15055;SDS011;7626;42.674;23.284;2023-01-16T13:42:47;21.07;;;17.07;;
15055;SDS011;7626;42.674;23.284;2023-01-16T13:45:20;23.87;;;17.50;;
15055;SDS011;7626;42.674;23.284;2023-01-16T13:48:11;21.50;;;16.97;;
15055;SDS011;7626;42.674;23.284;2023-01-16T13:50:38;21.20;;;16.50;;
15055;SDS011;7626;42.674;23.284;2023-01-16T13:53:11;20.37;;;17.20;;
15055;SDS011;7626;42.674;23.284;2023-01-16T13:55:41;20.70;;;15.93;;
15055;SDS011;7626;42.674;23.284;2023-01-16T13:58:09;19.30;;;16.23;;
15055;SDS011;7626;42.674;23.284;2023-01-16T14:00:41;17.80;;;14.80;;
15055;SDS011;7626;42.674;23.284;2023-01-16T14:03:17;21.77;;;15.90;;
15055;SDS011;7626;42.674;23.284;2023-01-16T14:05:47;18.80;;;15.53;;
15055;SDS011;7626;42.674;23.284;2023-01-16T14:11:35;19.33;;;14.50;;
15055;SDS011;7626;42.674;23.284;2023-01-16T14:17:15;15.90;;;13.93;;
15055;SDS011;7626;42.674;23.284;2023-01-16T14:19:50;16.30;;;14.60;;
15055;SDS011;7626;42.674;23.284;2023-01-16T14:22:24;21.27;;;15.67;;
15055;SDS011;7626;42.674;23.284;2023-01-16T14:25:18;21.93;;;15.77;;
15055;SDS011;7626;42.674;23.284;2023-01-16T14:27:50;20.73;;;14.97;;
15055;SDS011;7626;42.674;23.284;2023-01-16T14:30:20;18.13;;;15.43;;
15055;SDS011;7626;42.674;23.284;2023-01-16T14:32:52;20.63;;;15.67;;
15055;SDS011;7626;42.674;23.284;2023-01-16T14:35:22;19.03;;;15.23;;
15055;SDS011;7626;42.674;23.284;2023-01-16T14:37:56;17.93;;;15.77;;
15055;SDS011;7626;42.674;23.284;2023-01-16T14:40:25;19.73;;;15.20;;
15055;SDS011;7626;42.674;23.284;2023-01-16T14:43:10;19.90;;;15.07;;
15055;SDS011;7626;42.674;23.284;2023-01-16T14:52:34;18.43;;;15.27;;
15055;SDS011;7626;42.674;23.284;2023-01-16T14:55:20;18.90;;;14.77;;
15055;SDS011;7626;42.674;23.284;2023-01-16T14:57:47;17.00;;;15.17;;
15055;SDS011;7626;42.674;23.284;2023-01-16T15:00:17;17.63;;;15.27;;
15055;SDS011;7626;42.674;23.284;2023-01-16T15:02:49;17.17;;;15.37;;
15055;SDS011;7626;42.674;23.284;2023-01-16T15:05:20;19.17;;;15.00;;
15055;SDS011;7626;42.674;23.284;2023-01-16T15:08:09;18.43;;;15.27;;
15055;SDS011;7626;42.674;23.284;2023-01-16T15:10:40;17.80;;;15.17;;
15055;SDS011;7626;42.674;23.284;2023-01-16T15:13:12;17.83;;;15.70;;
15055;SDS011;7626;42.674;23.284;2023-01-16T15:15:41;17.60;;;15.27;;
15055;SDS011;7626;42.674;23.284;2023-01-16T15:18:12;21.40;;;15.93;;
15055;SDS011;7626;42.674;23.284;2023-01-16T15:20:58;19.60;;;16.67;;
15055;SDS011;7626;42.674;23.284;2023-01-16T15:23:42;18.20;;;15.33;;
15055;SDS011;7626;42.674;23.284;2023-01-16T15:26:16;19.03;;;16.60;;